createdAt,value
2023-05-19T00:00:56.447Z,8.64
2023-05-19T00:01:56.481Z,10.81
2023-05-19T00:02:56.510Z,8.89
2023-05-19T00:03:56.413Z,9.68
2023-05-19T00:04:56.406Z,9.21
2023-05-19T00:05:56.417Z,8.89
2023-05-19T00:06:56.395Z,9.93
2023-05-19T00:07:56.371Z,9.21
2023-05-19T00:08:56.362Z,9.52
2023-05-19T00:09:56.351Z,9.05
2023-05-19T00:10:56.346Z,9.21
2023-05-19T00:11:56.363Z,9.68
2023-05-19T00:12:56.318Z,9.21
2023-05-19T00:13:56.311Z,9.36
2023-05-19T00:14:56.326Z,9.13
2023-05-19T00:15:56.318Z,9.13
2023-05-19T00:16:56.310Z,8.97
2023-05-19T00:17:56.274Z,9.36
2023-05-19T00:18:56.278Z,9.05
2023-05-19T00:19:56.244Z,9.93
2023-05-19T00:20:56.235Z,8.81
2023-05-19T00:21:56.226Z,9.36
2023-05-19T00:22:56.219Z,9.68
2023-05-19T00:23:56.239Z,9.93
2023-05-19T00:24:56.202Z,9.60
2023-05-19T00:25:56.181Z,9.28
2023-05-19T00:26:56.172Z,9.13
2023-05-19T00:27:56.182Z,8.89
2023-05-19T00:28:56.150Z,9.52
2023-05-19T00:29:56.141Z,9.93
2023-05-19T00:30:56.133Z,8.15
2023-05-19T00:31:56.157Z,9.13
2023-05-19T00:32:56.137Z,8.97
2023-05-19T00:33:56.100Z,7.84
2023-05-19T00:34:56.094Z,9.36
2023-05-19T00:35:56.078Z,9.68
2023-05-19T00:36:56.072Z,9.52
2023-05-19T00:37:56.063Z,9.13
2023-05-19T00:38:56.057Z,8.56
2023-05-19T00:39:56.037Z,9.21
2023-05-19T00:40:56.037Z,9.44
2023-05-19T00:41:56.017Z,9.28
2023-05-19T00:42:56.009Z,9.21
2023-05-19T00:43:56.029Z,8.89
2023-05-19T00:44:55.993Z,8.48
2023-05-19T00:45:55.989Z,9.05
2023-05-19T00:46:56.044Z,9.28
2023-05-19T00:47:56.045Z,8.64
2023-05-19T00:48:55.944Z,9.05
2023-05-19T00:49:55.935Z,9.05
2023-05-19T00:50:55.926Z,9.36
2023-05-19T00:51:55.917Z,8.72
2023-05-19T00:52:55.902Z,9.05
2023-05-19T00:53:55.899Z,8.23
2023-05-19T00:54:55.922Z,9.05
2023-05-19T00:55:55.876Z,8.40
2023-05-19T00:56:55.876Z,9.21
2023-05-19T00:57:55.854Z,8.89
2023-05-19T00:58:55.841Z,9.21
2023-05-19T00:59:55.857Z,8.64
2023-05-19T01:00:55.858Z,7.84
2023-05-19T01:01:55.820Z,8.97
2023-05-19T01:02:55.897Z,9.85
2023-05-19T01:03:55.965Z,9.21
2023-05-19T01:04:55.782Z,9.05
2023-05-19T01:05:55.781Z,8.56
2023-05-19T01:06:55.758Z,9.13
2023-05-19T01:07:55.754Z,8.56
2023-05-19T01:08:55.739Z,8.81
2023-05-19T01:09:55.731Z,8.23
2023-05-19T01:10:55.725Z,7.84
2023-05-19T01:11:55.750Z,9.21
2023-05-19T01:12:55.694Z,8.56
2023-05-19T01:13:55.688Z,9.36
2023-05-19T01:14:55.675Z,8.81
2023-05-19T01:15:55.762Z,7.76
2023-05-19T01:16:55.769Z,8.48
2023-05-19T01:17:55.666Z,8.23
2023-05-19T01:18:55.664Z,9.21
2023-05-19T01:19:55.624Z,8.64
2023-05-19T01:20:55.610Z,8.56
2023-05-19T01:21:55.601Z,8.72
2023-05-19T01:22:55.609Z,8.15
2023-05-19T01:23:55.583Z,9.13
2023-05-19T01:24:55.570Z,9.05
2023-05-19T01:25:55.558Z,8.97
2023-05-19T01:26:55.550Z,8.40
2023-05-19T01:27:55.541Z,8.97
2023-05-19T01:28:55.527Z,7.92
2023-05-19T01:29:55.515Z,8.81
2023-05-19T01:30:55.507Z,8.40
2023-05-19T01:31:55.542Z,9.28
2023-05-19T01:32:55.498Z,8.81
2023-05-19T01:33:55.480Z,8.64
2023-05-19T01:34:55.468Z,8.97
2023-05-19T01:35:55.461Z,8.89
2023-05-19T01:36:55.443Z,9.05
2023-05-19T01:37:55.437Z,7.92
2023-05-19T01:38:55.425Z,8.32
2023-05-19T01:39:55.420Z,8.48
2023-05-19T01:40:55.405Z,9.13
2023-05-19T01:41:55.395Z,7.76
2023-05-19T01:42:57.438Z,8.72
2023-05-19T01:43:55.388Z,9.13
2023-05-19T01:44:55.365Z,8.32
2023-05-19T01:45:55.423Z,8.64
2023-05-19T01:46:55.350Z,7.67
2023-05-19T01:47:55.422Z,7.36
2023-05-19T01:48:55.322Z,8.40
2023-05-19T01:49:55.327Z,8.89
2023-05-19T01:50:55.307Z,8.32
2023-05-19T01:51:55.295Z,8.40
2023-05-19T01:52:55.289Z,8.56
2023-05-19T01:53:55.273Z,8.72
2023-05-19T01:54:55.267Z,8.00
2023-05-19T01:55:55.251Z,8.40
2023-05-19T01:56:55.240Z,8.64
2023-05-19T01:57:55.228Z,8.15
2023-05-19T01:58:55.219Z,7.76
2023-05-19T01:59:55.214Z,8.07
2023-05-19T02:00:55.204Z,8.40
2023-05-19T02:01:55.194Z,8.15
2023-05-19T02:02:55.206Z,8.32
2023-05-19T02:03:55.334Z,8.07
2023-05-19T02:04:55.185Z,8.56
2023-05-19T02:05:55.147Z,8.32
2023-05-19T02:06:55.138Z,9.05
2023-05-19T02:07:55.126Z,8.32
2023-05-19T02:08:55.118Z,7.92
2023-05-19T02:09:55.109Z,8.48
2023-05-19T02:10:55.093Z,8.07
2023-05-19T02:11:55.084Z,8.48
2023-05-19T02:12:55.078Z,8.32
2023-05-19T02:13:55.061Z,8.56
2023-05-19T02:14:55.055Z,8.40
2023-05-19T02:15:55.060Z,8.32
2023-05-19T02:16:55.025Z,8.23
2023-05-19T02:17:55.039Z,7.76
2023-05-19T02:18:55.035Z,8.00
2023-05-19T02:19:55.023Z,9.28
2023-05-19T02:20:54.984Z,8.07
2023-05-19T02:21:54.996Z,8.15
2023-05-19T02:22:54.963Z,7.84
2023-05-19T02:23:54.955Z,7.84
2023-05-19T02:24:54.940Z,8.48
2023-05-19T02:25:54.932Z,8.32
2023-05-19T02:26:54.919Z,7.67
2023-05-19T02:27:54.917Z,8.48
2023-05-19T02:28:54.895Z,7.92
2023-05-19T02:29:54.901Z,8.32
2023-05-19T02:30:54.883Z,7.52
2023-05-19T02:31:54.947Z,8.23
2023-05-19T02:32:54.952Z,7.92
2023-05-19T02:33:54.848Z,7.76
2023-05-19T02:34:54.839Z,9.21
2023-05-19T02:35:54.852Z,8.81
2023-05-19T02:36:54.818Z,7.92
2023-05-19T02:37:54.809Z,8.56
2023-05-19T02:38:54.799Z,7.76
2023-05-19T02:39:54.794Z,8.32
2023-05-19T02:40:54.777Z,8.00
2023-05-19T02:41:54.762Z,8.00
2023-05-19T02:42:54.755Z,7.59
2023-05-19T02:43:54.746Z,7.84
2023-05-19T02:44:54.763Z,8.00
2023-05-19T02:45:54.790Z,8.56
2023-05-19T02:46:54.810Z,8.07
2023-05-19T02:47:54.779Z,8.56
2023-05-19T02:48:54.715Z,7.92
2023-05-19T02:49:54.692Z,8.32
2023-05-19T02:50:54.682Z,8.32
2023-05-19T02:51:54.689Z,7.76
2023-05-19T02:52:54.652Z,8.15
2023-05-19T02:53:54.651Z,7.44
2023-05-19T02:54:54.636Z,7.59
2023-05-19T02:55:54.630Z,8.40
2023-05-19T02:56:54.620Z,7.03
2023-05-19T02:57:54.608Z,8.40
2023-05-19T02:58:54.595Z,7.59
2023-05-19T02:59:54.590Z,7.84
2023-05-19T03:00:54.571Z,8.56
2023-05-19T03:01:54.593Z,8.15
2023-05-19T03:02:54.654Z,7.59
2023-05-19T03:03:54.611Z,7.84
2023-05-19T03:04:54.530Z,8.23
2023-05-19T03:05:54.524Z,8.56
2023-05-19T03:06:54.528Z,8.32
2023-05-19T03:07:54.541Z,8.00
2023-05-19T03:08:54.493Z,8.40
2023-05-19T03:09:54.485Z,7.76
2023-05-19T03:10:54.470Z,8.48
2023-05-19T03:11:54.466Z,8.07
2023-05-19T03:12:54.454Z,7.28
2023-05-19T03:13:54.443Z,8.00
2023-05-19T03:14:54.430Z,7.36
2023-05-19T03:15:54.434Z,8.15
2023-05-19T03:16:54.487Z,8.23
2023-05-19T03:17:54.480Z,7.84
2023-05-19T03:18:54.431Z,7.92
2023-05-19T03:19:54.391Z,8.32
2023-05-19T03:20:54.376Z,7.52
2023-05-19T03:21:54.365Z,8.32
2023-05-19T03:22:54.358Z,8.23
2023-05-19T03:23:54.363Z,7.67
2023-05-19T03:24:54.339Z,7.67
2023-05-19T03:25:54.357Z,8.81
2023-05-19T03:26:54.323Z,8.00
2023-05-19T03:27:54.307Z,7.52
2023-05-19T03:28:54.296Z,7.44
2023-05-19T03:29:54.287Z,8.07
2023-05-19T03:30:54.285Z,7.03
2023-05-19T03:31:54.306Z,7.03
2023-05-19T03:32:54.378Z,6.63
2023-05-19T03:33:54.250Z,7.52
2023-05-19T03:34:54.235Z,8.07
2023-05-19T03:35:54.227Z,7.03
2023-05-19T03:36:54.213Z,7.84
2023-05-19T03:37:54.208Z,7.84
2023-05-19T03:38:54.203Z,8.32
2023-05-19T03:39:54.219Z,8.07
2023-05-19T03:40:54.178Z,7.44
2023-05-19T03:41:54.175Z,8.07
2023-05-19T03:42:54.165Z,7.76
2023-05-19T03:43:54.154Z,7.28
2023-05-19T03:44:54.137Z,7.11
2023-05-19T03:45:54.153Z,6.96
2023-05-19T03:46:54.116Z,8.07
2023-05-19T03:47:54.168Z,8.72
2023-05-19T03:48:54.106Z,6.86
2023-05-19T03:49:54.085Z,7.92
2023-05-19T03:50:54.078Z,8.40
2023-05-19T03:51:54.070Z,6.96
2023-05-19T03:52:54.056Z,7.36
2023-05-19T03:53:54.049Z,7.59
2023-05-19T03:54:54.038Z,6.86
2023-05-19T03:55:54.049Z,7.52
2023-05-19T03:56:54.016Z,7.92
2023-05-19T03:57:54.005Z,8.32
2023-05-19T03:58:53.995Z,7.67
2023-05-19T03:59:53.985Z,7.67
2023-05-19T04:00:53.973Z,6.46
2023-05-19T04:01:53.978Z,7.28
2023-05-19T04:02:54.032Z,7.28
2023-05-19T04:03:53.948Z,7.92
2023-05-19T04:04:54.109Z,7.19
2023-05-19T04:05:53.924Z,7.52
2023-05-19T04:06:53.912Z,8.00
2023-05-19T04:07:53.903Z,6.55
2023-05-19T04:08:53.894Z,7.11
2023-05-19T04:09:53.880Z,7.84
2023-05-19T04:10:53.879Z,7.19
2023-05-19T04:11:53.886Z,7.28
2023-05-19T04:12:53.850Z,6.86
2023-05-19T04:13:53.839Z,7.52
2023-05-19T04:14:53.841Z,8.00
2023-05-19T04:15:53.838Z,8.48
2023-05-19T04:16:53.810Z,7.84
2023-05-19T04:17:53.842Z,7.44
2023-05-19T04:18:53.802Z,7.19
2023-05-19T04:19:53.784Z,6.71
2023-05-19T04:20:53.766Z,7.59
2023-05-19T04:21:53.757Z,7.52
2023-05-19T04:22:53.744Z,7.36
2023-05-19T04:23:53.738Z,8.00
2023-05-19T04:24:53.745Z,7.36
2023-05-19T04:25:53.723Z,7.36
2023-05-19T04:26:53.703Z,7.59
2023-05-19T04:27:53.713Z,6.46
2023-05-19T04:28:53.678Z,7.76
2023-05-19T04:29:53.698Z,7.67
2023-05-19T04:30:53.719Z,7.44
2023-05-19T04:31:53.658Z,8.32
2023-05-19T04:32:53.661Z,7.67
2023-05-19T04:33:53.636Z,7.92
2023-05-19T04:34:53.640Z,7.19
2023-05-19T04:35:53.618Z,7.11
2023-05-19T04:36:53.703Z,5.67
2023-05-19T04:37:53.601Z,8.07
2023-05-19T04:38:53.577Z,8.23
2023-05-19T04:39:53.573Z,8.23
2023-05-19T04:40:53.568Z,7.84
2023-05-19T04:41:53.546Z,6.55
2023-05-19T04:42:53.535Z,6.79
2023-05-19T04:43:53.544Z,7.28
2023-05-19T04:44:53.512Z,7.44
2023-05-19T04:45:53.521Z,8.15
2023-05-19T04:46:53.527Z,8.07
2023-05-19T04:47:53.524Z,8.15
2023-05-19T04:48:53.478Z,7.11
2023-05-19T04:49:53.474Z,7.44
2023-05-19T04:50:53.500Z,7.92
2023-05-19T04:51:55.731Z,7.76
2023-05-19T04:52:53.427Z,7.76
2023-05-19T04:53:53.424Z,8.07
2023-05-19T04:54:53.414Z,7.59
2023-05-19T04:55:53.405Z,7.19
2023-05-19T04:56:53.406Z,7.11
2023-05-19T04:57:53.384Z,8.00
2023-05-19T04:58:53.370Z,8.23
2023-05-19T04:59:53.381Z,7.84
2023-05-19T05:00:53.349Z,7.28
2023-05-19T05:01:53.410Z,8.56
2023-05-19T05:02:53.471Z,7.44
2023-05-19T05:03:53.362Z,7.19
2023-05-19T05:04:53.307Z,8.00
2023-05-19T05:05:53.296Z,7.36
2023-05-19T05:06:53.293Z,8.15
2023-05-19T05:07:53.274Z,7.03
2023-05-19T05:08:53.277Z,7.67
2023-05-19T05:09:53.253Z,7.84
2023-05-19T05:10:53.242Z,7.59
2023-05-19T05:11:53.229Z,8.23
2023-05-19T05:12:53.221Z,7.59
2023-05-19T05:13:53.209Z,7.28
2023-05-19T05:14:53.204Z,7.52
2023-05-19T05:15:53.262Z,7.84
2023-05-19T05:16:53.377Z,8.23
2023-05-19T05:17:53.240Z,7.84
2023-05-19T05:18:53.176Z,8.07
2023-05-19T05:19:53.154Z,7.67
2023-05-19T05:20:53.138Z,7.92
2023-05-19T05:21:53.128Z,7.59
2023-05-19T05:22:53.117Z,7.92
2023-05-19T05:23:53.102Z,8.48
2023-05-19T05:24:53.095Z,8.07
2023-05-19T05:25:53.098Z,7.92
2023-05-19T05:26:53.075Z,7.76
2023-05-19T05:27:53.062Z,7.44
2023-05-19T05:28:53.066Z,8.23
2023-05-19T05:29:53.061Z,8.40
2023-05-19T05:30:53.038Z,6.71
2023-05-19T05:31:53.064Z,7.84
2023-05-19T05:32:53.070Z,8.00
2023-05-19T05:33:53.001Z,8.23
2023-05-19T05:34:53.007Z,8.07
2023-05-19T05:35:52.986Z,7.92
2023-05-19T05:36:52.973Z,8.07
2023-05-19T05:37:52.962Z,8.48
2023-05-19T05:38:52.950Z,7.36
2023-05-19T05:39:52.940Z,7.76
2023-05-19T05:40:52.927Z,7.59
2023-05-19T05:41:52.921Z,7.36
2023-05-19T05:42:52.910Z,8.07
2023-05-19T05:43:52.923Z,8.97
2023-05-19T05:44:52.891Z,7.36
2023-05-19T05:45:52.899Z,7.92
2023-05-19T05:46:52.870Z,8.00
2023-05-19T05:47:52.968Z,8.64
2023-05-19T05:48:52.846Z,7.59
2023-05-19T05:49:53.580Z,7.03
2023-05-19T05:50:52.844Z,7.59
2023-05-19T05:52:05.126Z,7.28
2023-05-19T05:52:53.846Z,8.89
2023-05-19T05:53:52.800Z,7.84
2023-05-19T05:54:52.786Z,8.40
2023-05-19T05:55:52.777Z,8.07
2023-05-19T05:56:52.768Z,8.00
2023-05-19T05:57:52.753Z,8.89
2023-05-19T05:58:52.743Z,8.23
2023-05-19T05:59:52.740Z,7.92
2023-05-19T06:00:52.726Z,8.07
2023-05-19T06:01:52.713Z,8.48
2023-05-19T06:02:52.842Z,7.59
2023-05-19T06:03:52.800Z,8.15
2023-05-19T06:04:52.680Z,8.23
2023-05-19T06:05:52.780Z,8.64
2023-05-19T06:06:52.671Z,8.23
2023-05-19T06:07:52.659Z,8.72
2023-05-19T06:08:52.645Z,8.07
2023-05-19T06:09:52.653Z,9.28
2023-05-19T06:10:52.643Z,8.64
2023-05-19T06:11:52.626Z,6.71
2023-05-19T06:12:52.604Z,8.56
2023-05-19T06:13:52.591Z,7.52
2023-05-19T06:14:52.591Z,8.40
2023-05-19T06:15:52.629Z,8.32
2023-05-19T06:16:52.559Z,8.07
2023-05-19T06:17:52.591Z,8.89
2023-05-19T06:18:52.571Z,8.32
2023-05-19T06:19:52.599Z,7.84
2023-05-19T06:20:52.525Z,8.07
2023-05-19T06:21:52.510Z,7.44
2023-05-19T06:22:52.498Z,8.00
2023-05-19T06:23:52.496Z,8.40
2023-05-19T06:24:52.478Z,7.52
2023-05-19T06:25:52.468Z,8.15
2023-05-19T06:26:52.463Z,7.44
2023-05-19T06:27:52.454Z,8.56
2023-05-19T06:28:52.449Z,8.48
2023-05-19T06:29:52.425Z,8.07
2023-05-19T06:30:52.412Z,8.64
2023-05-19T06:31:52.504Z,8.40
2023-05-19T06:32:52.429Z,8.32
2023-05-19T06:33:52.385Z,8.40
2023-05-19T06:34:52.377Z,8.48
2023-05-19T06:35:52.392Z,8.89
2023-05-19T06:36:52.354Z,8.97
2023-05-19T06:37:52.400Z,9.05
2023-05-19T06:38:52.362Z,7.84
2023-05-19T06:39:52.383Z,8.64
2023-05-19T06:40:52.320Z,8.81
2023-05-19T06:41:52.317Z,8.81
2023-05-19T06:42:52.306Z,9.05
2023-05-19T06:43:52.321Z,8.64
2023-05-19T06:44:52.301Z,9.13
2023-05-19T06:45:52.346Z,8.72
2023-05-19T06:46:52.293Z,7.76
2023-05-19T06:47:52.370Z,8.97
2023-05-19T06:48:52.318Z,9.05
2023-05-19T06:49:52.232Z,8.89
2023-05-19T06:50:52.228Z,9.85
2023-05-19T06:51:52.319Z,8.07
2023-05-19T06:52:52.215Z,9.05
2023-05-19T06:53:52.188Z,8.07
2023-05-19T06:54:52.177Z,8.89
2023-05-19T06:55:58.561Z,8.48
2023-05-19T06:56:53.190Z,9.21
2023-05-19T06:57:52.147Z,8.72
2023-05-19T06:58:52.148Z,9.68
2023-05-19T06:59:52.130Z,9.21
2023-05-19T07:00:52.123Z,8.97
2023-05-19T07:01:52.154Z,9.52
2023-05-19T07:02:52.172Z,9.05
2023-05-19T07:03:52.187Z,8.23
2023-05-19T07:04:52.083Z,8.40
2023-05-19T07:05:52.078Z,9.52
2023-05-19T07:06:52.065Z,9.36
2023-05-19T07:07:52.096Z,8.89
2023-05-19T07:08:52.042Z,9.05
2023-05-19T07:09:52.032Z,9.36
2023-05-19T07:10:52.023Z,8.89
2023-05-19T07:11:52.015Z,8.15
2023-05-19T07:12:52.005Z,9.05
2023-05-19T07:13:51.993Z,8.81
2023-05-19T07:14:51.994Z,9.52
2023-05-19T07:15:52.013Z,9.68
2023-05-19T07:16:52.173Z,7.76
2023-05-19T07:17:51.992Z,8.00
2023-05-19T07:18:51.971Z,8.64
2023-05-19T07:19:51.935Z,9.36
2023-05-19T07:20:51.931Z,8.64
2023-05-19T07:21:51.915Z,9.05
2023-05-19T07:22:51.908Z,8.23
2023-05-19T07:23:51.931Z,9.44
2023-05-19T07:24:51.892Z,7.92
2023-05-19T07:25:51.876Z,9.44
2023-05-19T07:26:51.870Z,8.89
2023-05-19T07:27:51.855Z,9.44
2023-05-19T07:28:51.864Z,9.44
2023-05-19T07:29:51.849Z,8.97
2023-05-19T07:30:51.828Z,9.77
2023-05-19T07:31:51.868Z,9.85
2023-05-19T07:32:51.881Z,8.72
2023-05-19T07:33:54.531Z,9.36
2023-05-19T07:34:51.791Z,10.42
2023-05-19T07:35:51.779Z,8.23
2023-05-19T07:36:51.777Z,9.21
2023-05-19T07:37:51.759Z,8.81
2023-05-19T07:38:51.807Z,9.44
2023-05-19T07:39:51.760Z,8.72
2023-05-19T07:40:51.728Z,8.81
2023-05-19T07:41:51.722Z,9.28
2023-05-19T07:42:51.711Z,9.52
2023-05-19T07:43:51.699Z,9.28
2023-05-19T07:44:51.692Z,8.97
2023-05-19T07:45:51.696Z,9.13
2023-05-19T07:46:51.695Z,9.68
2023-05-19T07:47:51.714Z,9.52
2023-05-19T07:48:51.655Z,9.60
2023-05-19T07:49:52.162Z,9.52
2023-05-19T07:50:51.636Z,9.93
2023-05-19T07:51:51.630Z,9.05
2023-05-19T07:52:51.612Z,9.85
2023-05-19T07:53:51.599Z,9.44
2023-05-19T07:54:51.598Z,9.52
2023-05-19T07:55:51.625Z,9.13
2023-05-19T07:56:51.578Z,9.60
2023-05-19T07:57:51.566Z,9.68
2023-05-19T07:58:51.562Z,9.36
2023-05-19T07:59:51.548Z,8.72
2023-05-19T08:00:51.534Z,9.85
2023-05-19T08:01:51.536Z,9.44
2023-05-19T08:02:51.606Z,10.02
2023-05-19T08:03:51.590Z,9.60
2023-05-19T08:04:51.630Z,9.85
2023-05-19T08:05:51.486Z,9.52
2023-05-19T08:06:51.563Z,9.77
2023-05-19T08:07:51.465Z,9.77
2023-05-19T08:08:51.456Z,9.36
2023-05-19T08:09:51.444Z,8.97
2023-05-19T08:10:51.438Z,9.77
2023-05-19T08:11:51.693Z,9.68
2023-05-19T08:12:51.426Z,9.85
2023-05-19T08:13:51.410Z,9.28
2023-05-19T08:14:51.414Z,9.21
2023-05-19T08:15:51.438Z,9.36
2023-05-19T08:16:51.379Z,9.85
2023-05-19T08:17:51.439Z,10.26
2023-05-19T08:18:51.373Z,9.85
2023-05-19T08:19:51.353Z,9.36
2023-05-19T08:20:51.337Z,10.42
2023-05-19T08:21:51.336Z,9.52
2023-05-19T08:22:51.324Z,10.26
2023-05-19T08:23:51.312Z,10.10
2023-05-19T08:24:51.302Z,10.42
2023-05-19T08:25:51.287Z,9.77
2023-05-19T08:26:51.282Z,9.60
2023-05-19T08:27:51.304Z,9.21
2023-05-19T08:28:51.264Z,10.26
2023-05-19T08:29:51.248Z,10.50
2023-05-19T08:30:51.237Z,9.93
2023-05-19T08:31:51.253Z,10.02
2023-05-19T08:32:51.350Z,10.02
2023-05-19T08:33:51.214Z,9.68
2023-05-19T08:34:51.205Z,10.42
2023-05-19T08:35:51.198Z,10.10
2023-05-19T08:36:51.182Z,10.34
2023-05-19T08:37:51.187Z,10.10
2023-05-19T08:38:51.163Z,10.18
2023-05-19T08:39:51.157Z,9.77
2023-05-19T08:40:51.159Z,10.26
2023-05-19T08:41:51.130Z,9.52
2023-05-19T08:42:51.134Z,10.02
2023-05-19T08:43:51.202Z,9.52
2023-05-19T08:44:51.105Z,10.50
2023-05-19T08:45:51.089Z,9.93
2023-05-19T08:46:51.130Z,10.65
2023-05-19T08:47:51.204Z,10.57
2023-05-19T08:48:51.062Z,9.68
2023-05-19T08:49:51.052Z,10.34
2023-05-19T08:50:51.049Z,10.42
2023-05-19T08:51:51.029Z,10.81
2023-05-19T08:52:52.831Z,10.65
2023-05-19T08:53:51.025Z,10.26
2023-05-19T08:54:51.000Z,10.50
2023-05-19T08:55:50.990Z,10.02
2023-05-19T08:56:50.980Z,9.93
2023-05-19T08:57:50.982Z,9.77
2023-05-19T08:58:50.971Z,10.50
2023-05-19T08:59:50.982Z,10.34
2023-05-19T09:00:50.953Z,9.68
2023-05-19T09:01:50.947Z,10.89
2023-05-19T09:03:00.140Z,10.65
2023-05-19T09:03:52.034Z,10.57
2023-05-19T09:04:50.942Z,10.02
2023-05-19T09:05:50.963Z,10.34
2023-05-19T09:06:50.878Z,10.65
2023-05-19T09:07:50.872Z,10.18
2023-05-19T09:08:50.871Z,10.10
2023-05-19T09:09:50.856Z,10.65
2023-05-19T09:10:50.839Z,10.42
2023-05-19T09:11:50.843Z,11.71
2023-05-19T09:12:50.820Z,11.14
2023-05-19T09:13:50.812Z,10.50
2023-05-19T09:14:50.800Z,10.50
2023-05-19T09:15:50.821Z,10.10
2023-05-19T09:16:50.837Z,10.73
2023-05-19T09:17:50.786Z,11.39
2023-05-19T09:18:50.787Z,10.18
2023-05-19T09:19:50.751Z,10.18
2023-05-19T09:20:50.743Z,9.68
2023-05-19T09:21:50.739Z,9.85
2023-05-19T09:22:50.722Z,10.26
2023-05-19T09:23:50.711Z,11.06
2023-05-19T09:24:50.701Z,10.57
2023-05-19T09:25:50.700Z,10.42
2023-05-19T09:26:50.677Z,11.31
2023-05-19T09:27:50.675Z,11.14
2023-05-19T09:28:50.659Z,10.42
2023-05-19T09:29:50.653Z,9.77
2023-05-19T09:30:50.637Z,10.34
2023-05-19T09:31:50.712Z,10.97
2023-05-19T09:32:50.664Z,10.65
2023-05-19T09:33:50.611Z,11.31
2023-05-19T09:34:50.651Z,11.06
2023-05-19T09:35:50.591Z,10.57
2023-05-19T09:36:50.581Z,11.06
2023-05-19T09:37:50.572Z,11.47
2023-05-19T09:38:50.558Z,11.55
2023-05-19T09:39:50.553Z,10.50
2023-05-19T09:40:50.533Z,10.26
2023-05-19T09:41:50.530Z,11.22
2023-05-19T09:42:50.523Z,10.89
2023-05-19T09:43:50.508Z,11.14
2023-05-19T09:44:50.497Z,10.89
2023-05-19T09:45:50.524Z,10.89
2023-05-19T09:46:50.473Z,10.57
2023-05-19T09:47:50.557Z,11.39
2023-05-19T09:48:50.455Z,11.22
2023-05-19T09:49:50.450Z,10.89
2023-05-19T09:50:50.431Z,10.89
2023-05-19T09:51:50.428Z,11.22
2023-05-19T09:52:50.415Z,11.63
2023-05-19T09:53:50.401Z,11.63
2023-05-19T09:54:50.390Z,9.77
2023-05-19T09:55:50.382Z,10.89
2023-05-19T09:56:50.369Z,12.35
2023-05-19T09:57:50.366Z,11.55
2023-05-19T09:58:50.352Z,10.42
2023-05-19T09:59:50.342Z,10.81
2023-05-19T10:00:50.338Z,11.31
2023-05-19T10:01:50.342Z,11.06
2023-05-19T10:02:50.349Z,11.39
2023-05-19T10:03:50.349Z,12.18
2023-05-19T10:04:50.351Z,9.77
2023-05-19T10:05:50.279Z,11.14
2023-05-19T10:06:50.264Z,11.63
2023-05-19T10:07:50.259Z,11.31
2023-05-19T10:08:50.246Z,10.89
2023-05-19T10:09:50.252Z,10.81
2023-05-19T10:10:50.226Z,11.14
2023-05-19T10:11:50.220Z,11.63
2023-05-19T10:12:50.231Z,10.34
2023-05-19T10:13:50.200Z,12.02
2023-05-19T10:14:50.185Z,11.39
2023-05-19T10:15:58.209Z,11.06
2023-05-19T10:16:51.254Z,11.31
2023-05-19T10:17:50.183Z,11.55
2023-05-19T10:18:50.190Z,11.31
2023-05-19T10:19:50.176Z,11.63
2023-05-19T10:20:50.145Z,11.63
2023-05-19T10:21:50.121Z,11.14
2023-05-19T10:22:50.106Z,10.97
2023-05-19T10:23:50.095Z,11.71
2023-05-19T10:24:50.087Z,11.71
2023-05-19T10:25:50.075Z,11.31
2023-05-19T10:26:50.065Z,12.35
2023-05-19T10:27:50.054Z,12.10
2023-05-19T10:28:50.048Z,10.97
2023-05-19T10:29:50.042Z,11.71
2023-05-19T10:30:50.027Z,11.63
2023-05-19T10:31:50.065Z,11.86
2023-05-19T10:32:50.030Z,11.71
2023-05-19T10:33:49.995Z,11.55
2023-05-19T10:34:49.984Z,11.47
2023-05-19T10:35:49.997Z,11.55
2023-05-19T10:36:49.969Z,11.14
2023-05-19T10:37:49.955Z,12.02
2023-05-19T10:38:49.948Z,11.86
2023-05-19T10:39:49.934Z,11.63
2023-05-19T10:40:49.926Z,11.94
2023-05-19T10:41:49.921Z,11.39
2023-05-19T10:42:49.901Z,11.55
2023-05-19T10:43:49.891Z,11.71
2023-05-19T10:44:49.885Z,11.14
2023-05-19T10:45:49.877Z,11.94
2023-05-19T10:46:49.869Z,11.79
2023-05-19T10:47:49.876Z,12.27
2023-05-19T10:48:49.851Z,11.55
2023-05-19T10:49:49.832Z,12.02
2023-05-19T10:50:49.827Z,11.55
2023-05-19T10:51:49.851Z,12.02
2023-05-19T10:52:49.804Z,11.71
2023-05-19T10:53:49.812Z,12.27
2023-05-19T10:54:49.780Z,11.22
2023-05-19T10:55:49.778Z,12.02
2023-05-19T10:56:49.763Z,12.10
2023-05-19T10:57:49.754Z,10.42
2023-05-19T10:58:49.752Z,11.71
2023-05-19T10:59:49.746Z,11.71
2023-05-19T11:00:49.722Z,12.18
2023-05-19T11:01:49.735Z,11.86
2023-05-19T11:02:49.746Z,12.76
2023-05-19T11:03:49.726Z,12.10
2023-05-19T11:04:51.620Z,11.94
2023-05-19T11:05:49.691Z,12.27
2023-05-19T11:06:49.662Z,11.94
2023-05-19T11:07:49.668Z,13.15
2023-05-19T11:08:49.643Z,11.55
2023-05-19T11:09:49.639Z,12.18
2023-05-19T11:10:49.623Z,12.60
2023-05-19T11:11:49.612Z,10.65
2023-05-19T11:12:49.601Z,11.14
2023-05-19T11:13:49.593Z,12.76
2023-05-19T11:14:49.586Z,11.86
2023-05-19T11:15:49.573Z,11.71
2023-05-19T11:16:49.626Z,11.94
2023-05-19T11:17:49.688Z,10.26
2023-05-19T11:18:49.673Z,11.71
2023-05-19T11:19:49.532Z,11.86
2023-05-19T11:20:49.582Z,12.60
2023-05-19T11:21:49.509Z,11.55
2023-05-19T11:22:49.499Z,12.68
2023-05-19T11:23:49.567Z,12.18
2023-05-19T11:24:49.479Z,10.81
2023-05-19T11:25:49.470Z,12.10
2023-05-19T11:26:49.460Z,13.00
2023-05-19T11:27:49.449Z,12.02
2023-05-19T11:28:49.439Z,12.35
2023-05-19T11:29:49.444Z,11.47
2023-05-19T11:30:49.420Z,12.10
2023-05-19T11:31:49.451Z,13.15
2023-05-19T11:32:49.410Z,11.94
2023-05-19T11:33:49.390Z,12.92
2023-05-19T11:34:49.394Z,11.79
2023-05-19T11:35:49.470Z,10.97
2023-05-19T11:36:49.358Z,12.84
2023-05-19T11:37:49.348Z,12.10
2023-05-19T11:38:49.348Z,11.86
2023-05-19T11:39:49.423Z,12.43
2023-05-19T11:40:49.313Z,11.79
2023-05-19T11:41:49.306Z,12.02
2023-05-19T11:42:49.295Z,11.63
2023-05-19T11:43:49.288Z,12.35
2023-05-19T11:44:49.279Z,11.39
2023-05-19T11:45:49.299Z,12.18
2023-05-19T11:46:49.434Z,12.02
2023-05-19T11:48:01.141Z,12.18
2023-05-19T11:48:50.270Z,12.02
2023-05-19T11:49:49.228Z,12.43
2023-05-19T11:50:49.234Z,12.35
2023-05-19T11:51:49.213Z,11.94
2023-05-19T11:52:49.192Z,11.94
2023-05-19T11:53:49.182Z,12.10
2023-05-19T11:54:49.178Z,12.51
2023-05-19T11:55:49.855Z,12.76
2023-05-19T11:56:49.172Z,11.47
2023-05-19T11:58:02.182Z,13.07
2023-05-19T11:58:50.168Z,12.43
2023-05-19T11:59:49.132Z,12.68
2023-05-19T12:00:49.118Z,12.51
2023-05-19T12:01:49.109Z,13.00
2023-05-19T12:02:49.249Z,12.02
2023-05-19T12:03:49.361Z,11.22
2023-05-19T12:04:49.122Z,13.00
2023-05-19T12:05:49.568Z,12.51
2023-05-19T12:06:49.086Z,12.60
2023-05-19T12:07:49.046Z,12.84
2023-05-19T12:08:49.033Z,12.68
2023-05-19T12:09:49.025Z,12.51
2023-05-19T12:10:49.009Z,11.31
2023-05-19T12:11:49.029Z,12.35
2023-05-19T12:12:48.993Z,12.68
2023-05-19T12:13:48.988Z,12.60
2023-05-19T12:14:48.980Z,12.68
2023-05-19T12:15:48.985Z,12.68
2023-05-19T12:16:49.144Z,12.68
2023-05-19T12:17:48.974Z,14.13
2023-05-19T12:18:48.967Z,11.55
2023-05-19T12:19:48.930Z,13.07
2023-05-19T12:20:48.915Z,12.68
2023-05-19T12:21:48.910Z,12.60
2023-05-19T12:22:48.897Z,11.86
2023-05-19T12:23:48.885Z,13.00
2023-05-19T12:24:48.872Z,12.68
2023-05-19T12:25:48.921Z,12.76
2023-05-19T12:26:48.858Z,11.55
2023-05-19T12:27:48.874Z,13.00
2023-05-19T12:28:48.844Z,12.76
2023-05-19T12:29:48.822Z,12.68
2023-05-19T12:30:48.809Z,12.60
2023-05-19T12:31:48.841Z,13.07
2023-05-19T12:32:48.844Z,12.27
2023-05-19T12:33:48.784Z,13.15
2023-05-19T12:34:48.782Z,13.23
2023-05-19T12:35:48.767Z,13.07
2023-05-19T12:36:48.757Z,13.15
2023-05-19T12:37:48.746Z,13.39
2023-05-19T12:38:48.744Z,12.92
2023-05-19T12:39:48.727Z,12.84
2023-05-19T12:40:48.714Z,13.15
2023-05-19T12:41:48.702Z,12.84
2023-05-19T12:42:48.738Z,13.23
2023-05-19T12:43:48.718Z,13.15
2023-05-19T12:44:48.674Z,13.15
2023-05-19T12:45:48.706Z,14.68
2023-05-19T12:46:48.654Z,13.47
2023-05-19T12:47:48.702Z,12.84
2023-05-19T12:48:48.644Z,13.23
2023-05-19T12:49:48.626Z,13.31
2023-05-19T12:50:48.622Z,13.15
2023-05-19T12:51:48.607Z,13.15
2023-05-19T12:52:48.602Z,12.76
2023-05-19T12:53:48.590Z,12.84
2023-05-19T12:54:48.660Z,13.15
2023-05-19T12:55:48.566Z,13.00
2023-05-19T12:56:48.556Z,13.31
2023-05-19T12:57:49.970Z,13.23
2023-05-19T12:58:48.540Z,13.00
2023-05-19T12:59:48.652Z,13.07
2023-05-19T13:00:48.619Z,12.60
2023-05-19T13:01:48.558Z,11.94
2023-05-19T13:02:48.600Z,13.31
2023-05-19T13:03:48.765Z,12.92
2023-05-19T13:04:48.472Z,13.39
2023-05-19T13:05:48.487Z,13.56
2023-05-19T13:06:48.453Z,13.00
2023-05-19T13:07:48.444Z,12.92
2023-05-19T13:08:48.441Z,12.76
2023-05-19T13:09:48.426Z,13.00